createdAt,value
2023-04-28T00:00:01.706Z,22.79
2023-04-28T00:01:01.432Z,22.78
2023-04-28T00:02:01.476Z,22.79
2023-04-28T00:03:01.650Z,22.79
2023-04-28T00:04:01.856Z,22.78
2023-04-28T00:05:01.723Z,22.79
2023-04-28T00:06:01.720Z,22.76
2023-04-28T00:07:01.749Z,22.76
2023-04-28T00:08:01.759Z,22.78
2023-04-28T00:09:01.813Z,22.74
2023-04-28T00:10:01.877Z,22.76
2023-04-28T00:11:01.952Z,22.76
2023-04-28T00:12:02.031Z,22.78
2023-04-28T00:13:02.036Z,22.76
2023-04-28T00:14:02.081Z,22.76
2023-04-28T00:15:02.204Z,22.75
2023-04-28T00:16:02.231Z,22.74
2023-04-28T00:17:02.293Z,22.78
2023-04-28T00:18:02.337Z,22.79
2023-04-28T00:19:02.372Z,22.76
2023-04-28T00:20:02.418Z,22.75
2023-04-28T00:21:02.460Z,22.74
2023-04-28T00:22:02.513Z,22.75
2023-04-28T00:23:02.575Z,22.76
2023-04-28T00:24:02.627Z,22.76
2023-04-28T00:25:03.159Z,22.74
2023-04-28T00:26:02.737Z,22.76
2023-04-28T00:27:02.821Z,22.75
2023-04-28T00:28:02.856Z,22.74
2023-04-28T00:29:02.888Z,22.76
2023-04-28T00:30:03.178Z,22.76
2023-04-28T00:31:02.992Z,22.76
2023-04-28T00:32:03.110Z,22.75
2023-04-28T00:33:03.261Z,22.75
2023-04-28T00:34:03.182Z,22.72
2023-04-28T00:35:03.673Z,22.75
2023-04-28T00:36:03.281Z,22.75
2023-04-28T00:37:03.370Z,22.74
2023-04-28T00:38:03.378Z,22.72
2023-04-28T00:39:03.453Z,22.72
2023-04-28T00:40:03.480Z,22.76
2023-04-28T00:41:03.680Z,22.72
2023-04-28T00:42:03.588Z,22.72
2023-04-28T00:43:03.638Z,22.72
2023-04-28T00:44:03.663Z,22.72
2023-04-28T00:45:04.200Z,22.72
2023-04-28T00:46:03.823Z,22.72
2023-04-28T00:47:03.842Z,22.71
2023-04-28T00:48:04.009Z,22.72
2023-04-28T00:49:03.987Z,22.71
2023-04-28T00:50:04.021Z,22.68
2023-04-28T00:51:04.155Z,22.68
2023-04-28T00:52:04.113Z,22.68
2023-04-28T00:53:04.171Z,22.71
2023-04-28T00:54:04.215Z,22.74
2023-04-28T00:55:04.304Z,22.72
2023-04-28T00:56:04.333Z,22.71
2023-04-28T00:57:04.369Z,22.72
2023-04-28T00:58:04.467Z,22.74
2023-04-28T00:59:04.519Z,22.72
2023-04-28T01:00:04.563Z,22.74
2023-04-28T01:01:04.656Z,22.71
2023-04-28T01:02:04.708Z,22.71
2023-04-28T01:03:04.836Z,22.71
2023-04-28T01:04:05.029Z,22.70
2023-04-28T01:05:04.836Z,22.74
2023-04-28T01:06:05.196Z,22.71
2023-04-28T01:07:04.956Z,22.70
2023-04-28T01:08:05.034Z,22.70
2023-04-28T01:09:05.111Z,22.71
2023-04-28T01:10:05.159Z,22.68
2023-04-28T01:11:05.226Z,22.70
2023-04-28T01:12:05.300Z,22.68
2023-04-28T01:13:05.345Z,22.67
2023-04-28T01:14:05.401Z,22.71
2023-04-28T01:15:05.468Z,22.71
2023-04-28T01:16:05.705Z,22.70
2023-04-28T01:17:05.583Z,22.67
2023-04-28T01:18:05.709Z,22.68
2023-04-28T01:19:05.710Z,22.68
2023-04-28T01:20:05.780Z,22.68
2023-04-28T01:21:05.810Z,22.67
2023-04-28T01:22:05.918Z,22.67
2023-04-28T01:23:05.924Z,22.68
2023-04-28T01:24:06.035Z,22.65
2023-04-28T01:25:06.076Z,22.65
2023-04-28T01:26:06.215Z,22.67
2023-04-28T01:27:06.191Z,22.65
2023-04-28T01:28:06.266Z,22.67
2023-04-28T01:29:06.312Z,22.65
2023-04-28T01:30:06.389Z,22.64
2023-04-28T01:31:06.451Z,22.65
2023-04-28T01:32:06.493Z,22.65
2023-04-28T01:33:06.572Z,22.70
2023-04-28T01:34:06.618Z,22.65
2023-04-28T01:35:06.687Z,22.65
2023-04-28T01:36:06.725Z,22.67
2023-04-28T01:37:06.770Z,22.68
2023-04-28T01:38:06.848Z,22.64
2023-04-28T01:39:06.885Z,22.62
2023-04-28T01:40:06.919Z,22.65
2023-04-28T01:41:06.971Z,22.65
2023-04-28T01:42:07.097Z,22.64
2023-04-28T01:43:07.063Z,22.62
2023-04-28T01:44:07.770Z,22.67
2023-04-28T01:45:07.147Z,22.67
2023-04-28T01:46:07.288Z,22.67
2023-04-28T01:47:07.226Z,22.67
2023-04-28T01:48:07.365Z,22.65
2023-04-28T01:49:07.342Z,22.65
2023-04-28T01:50:07.370Z,22.62
2023-04-28T01:51:07.456Z,22.65
2023-04-28T01:52:07.531Z,22.65
2023-04-28T01:53:07.564Z,22.68
2023-04-28T01:54:07.619Z,22.64
2023-04-28T01:55:07.672Z,22.65
2023-04-28T01:56:07.724Z,22.65
2023-04-28T01:57:07.796Z,22.64
2023-04-28T01:58:07.841Z,22.65
2023-04-28T01:59:07.876Z,22.64
2023-04-28T02:00:07.957Z,22.65
2023-04-28T02:01:08.057Z,22.65
2023-04-28T02:02:08.083Z,22.62
2023-04-28T02:03:08.330Z,22.65
2023-04-28T02:04:08.237Z,22.64
2023-04-28T02:05:08.264Z,22.62
2023-04-28T02:06:08.390Z,22.65
2023-04-28T02:07:08.379Z,22.64
2023-04-28T02:08:08.412Z,22.62
2023-04-28T02:09:08.491Z,22.62
2023-04-28T02:10:08.571Z,22.61
2023-04-28T02:11:08.607Z,22.65
2023-04-28T02:12:08.702Z,22.61
2023-04-28T02:13:08.756Z,22.62
2023-04-28T02:14:08.803Z,22.62
2023-04-28T02:15:08.881Z,22.62
2023-04-28T02:16:08.974Z,22.62
2023-04-28T02:17:08.965Z,22.64
2023-04-28T02:18:09.056Z,22.62
2023-04-28T02:19:09.067Z,22.61
2023-04-28T02:20:09.146Z,22.62
2023-04-28T02:21:09.200Z,22.62
2023-04-28T02:22:09.265Z,22.62
2023-04-28T02:23:09.309Z,22.60
2023-04-28T02:24:09.412Z,22.62
2023-04-28T02:25:09.460Z,22.58
2023-04-28T02:26:09.488Z,22.61
2023-04-28T02:27:09.533Z,22.60
2023-04-28T02:28:09.598Z,22.62
2023-04-28T02:29:09.696Z,22.62
2023-04-28T02:30:09.735Z,22.62
2023-04-28T02:31:09.848Z,22.58
2023-04-28T02:32:09.855Z,22.60
2023-04-28T02:33:09.972Z,22.61
2023-04-28T02:34:09.954Z,22.61
2023-04-28T02:35:10.027Z,22.62
2023-04-28T02:36:10.105Z,22.58
2023-04-28T02:37:10.162Z,22.58
2023-04-28T02:38:10.167Z,22.61
2023-04-28T02:39:10.277Z,22.58
2023-04-28T02:40:10.338Z,22.61
2023-04-28T02:41:10.726Z,22.61
2023-04-28T02:42:10.457Z,22.60
2023-04-28T02:43:10.462Z,22.60
2023-04-28T02:44:10.546Z,22.57
2023-04-28T02:45:10.581Z,22.61
2023-04-28T02:46:10.701Z,22.60
2023-04-28T02:47:10.725Z,22.60
2023-04-28T02:48:10.832Z,22.58
2023-04-28T02:49:10.806Z,22.58
2023-04-28T02:50:10.876Z,22.58
2023-04-28T02:51:10.963Z,22.58
2023-04-28T02:52:11.047Z,22.58
2023-04-28T02:53:11.039Z,22.60
2023-04-28T02:54:11.126Z,22.57
2023-04-28T02:55:11.198Z,22.55
2023-04-28T02:56:11.259Z,22.57
2023-04-28T02:57:11.310Z,22.57
2023-04-28T02:58:11.375Z,22.57
2023-04-28T02:59:11.427Z,22.57
2023-04-28T03:00:11.525Z,22.55
2023-04-28T03:01:11.588Z,22.55
2023-04-28T03:02:11.618Z,22.57
2023-04-28T03:03:11.773Z,22.58
2023-04-28T03:04:11.935Z,22.54
2023-04-28T03:05:11.826Z,22.55
2023-04-28T03:06:11.859Z,22.57
2023-04-28T03:07:11.952Z,22.57
2023-04-28T03:08:12.075Z,22.57
2023-04-28T03:09:12.058Z,22.55
2023-04-28T03:10:12.142Z,22.57
2023-04-28T03:11:12.275Z,22.54
2023-04-28T03:12:12.226Z,22.55
2023-04-28T03:13:12.307Z,22.54
2023-04-28T03:14:12.361Z,22.54
2023-04-28T03:15:14.068Z,22.55
2023-04-28T03:16:12.514Z,22.54
2023-04-28T03:17:12.553Z,22.54
2023-04-28T03:18:12.631Z,22.55
2023-04-28T03:19:12.704Z,22.54
2023-04-28T03:20:12.717Z,22.54
2023-04-28T03:21:12.811Z,22.53
2023-04-28T03:22:12.859Z,22.53
2023-04-28T03:23:12.923Z,22.53
2023-04-28T03:24:13.049Z,22.55
2023-04-28T03:25:13.047Z,22.54
2023-04-28T03:26:13.116Z,22.55
2023-04-28T03:27:13.172Z,22.55
2023-04-28T03:28:13.205Z,22.55
2023-04-28T03:29:13.290Z,22.53
2023-04-28T03:30:13.368Z,22.54
2023-04-28T03:31:13.430Z,22.54
2023-04-28T03:32:13.504Z,22.53
2023-04-28T03:33:13.533Z,22.55
2023-04-28T03:34:13.682Z,22.53
2023-04-28T03:35:13.671Z,22.55
2023-04-28T03:36:13.734Z,22.50
2023-04-28T03:37:13.792Z,22.50
2023-04-28T03:38:13.862Z,22.51
2023-04-28T03:39:13.935Z,22.53
2023-04-28T03:40:13.991Z,22.48
2023-04-28T03:41:14.016Z,22.54
2023-04-28T03:42:14.092Z,22.51
2023-04-28T03:43:14.120Z,22.51
2023-04-28T03:44:14.321Z,22.51
2023-04-28T03:45:14.286Z,22.51
2023-04-28T03:46:14.378Z,22.51
2023-04-28T03:47:14.388Z,22.51
2023-04-28T03:48:14.463Z,22.48
2023-04-28T03:49:14.525Z,22.50
2023-04-28T03:50:14.589Z,22.48
2023-04-28T03:51:14.668Z,22.51
2023-04-28T03:52:14.710Z,22.51
2023-04-28T03:53:14.781Z,22.50
2023-04-28T03:54:15.170Z,22.53
2023-04-28T03:55:14.886Z,22.50
2023-04-28T03:56:15.283Z,22.50
2023-04-28T03:57:15.008Z,22.53
2023-04-28T03:58:15.102Z,22.51
2023-04-28T03:59:15.133Z,22.53
2023-04-28T04:00:15.175Z,22.51
2023-04-28T04:01:15.283Z,22.50
2023-04-28T04:02:15.356Z,22.48
2023-04-28T04:03:15.599Z,22.53
2023-04-28T04:04:16.005Z,22.50
2023-04-28T04:05:15.570Z,22.51
2023-04-28T04:06:15.787Z,22.50
2023-04-28T04:07:15.626Z,22.51
2023-04-28T04:08:15.652Z,22.53
2023-04-28T04:09:15.774Z,22.48
2023-04-28T04:10:15.816Z,22.48
2023-04-28T04:11:16.274Z,22.48
2023-04-28T04:12:15.940Z,22.48
2023-04-28T04:13:15.981Z,22.50
2023-04-28T04:14:16.265Z,22.50
2023-04-28T04:15:16.121Z,22.50
2023-04-28T04:16:16.339Z,22.51
2023-04-28T04:17:16.285Z,22.51
2023-04-28T04:18:16.290Z,22.51
2023-04-28T04:19:16.337Z,22.48
2023-04-28T04:20:16.412Z,22.48
2023-04-28T04:21:16.889Z,22.50
2023-04-28T04:22:16.515Z,22.53
2023-04-28T04:23:16.581Z,22.51
2023-04-28T04:24:16.855Z,22.51
2023-04-28T04:25:16.702Z,22.48
2023-04-28T04:26:16.872Z,22.48
2023-04-28T04:27:16.921Z,22.47
2023-04-28T04:28:16.867Z,22.51
2023-04-28T04:29:16.952Z,22.48
2023-04-28T04:30:17.045Z,22.50
2023-04-28T04:31:17.028Z,22.50
2023-04-28T04:32:17.116Z,22.50
2023-04-28T04:33:17.168Z,22.48
2023-04-28T04:34:17.432Z,22.50
2023-04-28T04:35:17.223Z,22.47
2023-04-28T04:36:17.260Z,22.50
2023-04-28T04:37:17.321Z,22.48
2023-04-28T04:38:17.406Z,22.46
2023-04-28T04:39:17.484Z,22.50
2023-04-28T04:40:17.569Z,22.50
2023-04-28T04:41:17.604Z,22.48
2023-04-28T04:43:18.652Z,22.47
2023-04-28T04:44:17.819Z,22.46
2023-04-28T04:45:17.630Z,22.46
2023-04-28T04:46:17.910Z,22.47
2023-04-28T04:47:17.590Z,22.48
2023-04-28T04:48:17.597Z,22.48
2023-04-28T04:49:17.572Z,22.48
2023-04-28T04:50:17.599Z,22.50
2023-04-28T04:51:17.569Z,22.48
2023-04-28T04:52:17.586Z,22.47
2023-04-28T04:53:17.610Z,22.47
2023-04-28T04:54:17.870Z,22.46
2023-04-28T04:55:17.687Z,22.46
2023-04-28T04:56:17.795Z,22.47
2023-04-28T04:57:17.820Z,22.48
2023-04-28T04:58:17.860Z,22.50
2023-04-28T04:59:17.893Z,22.47
2023-04-28T05:00:17.984Z,22.47
2023-04-28T05:01:18.327Z,22.47
2023-04-28T05:02:18.182Z,22.44
2023-04-28T05:03:18.428Z,22.47
2023-04-28T05:04:18.575Z,22.43
2023-04-28T05:05:21.844Z,22.40
2023-04-28T05:06:18.322Z,22.36
2023-04-28T05:07:18.250Z,22.27
2023-04-28T05:08:18.234Z,22.26
2023-04-28T05:09:18.215Z,22.29
2023-04-28T05:10:18.208Z,22.30
2023-04-28T05:11:18.332Z,22.26
2023-04-28T05:12:18.196Z,22.29
2023-04-28T05:13:18.185Z,22.26
2023-04-28T05:14:18.495Z,22.24
2023-04-28T05:15:18.143Z,22.26
2023-04-28T05:16:18.184Z,22.23
2023-04-28T05:17:18.167Z,22.21
2023-04-28T05:18:18.119Z,22.19
2023-04-28T05:19:18.129Z,22.21
2023-04-28T05:20:18.172Z,22.20
2023-04-28T05:21:18.192Z,22.20
2023-04-28T05:22:18.093Z,22.20
2023-04-28T05:23:18.089Z,22.19
2023-04-28T05:24:18.355Z,22.19
2023-04-28T05:25:18.083Z,22.17
2023-04-28T05:26:18.083Z,22.17
2023-04-28T05:27:18.098Z,22.17
2023-04-28T05:28:19.104Z,22.17
2023-04-28T05:29:18.134Z,22.15
2023-04-28T05:30:18.141Z,22.16
2023-04-28T05:31:18.161Z,22.19
2023-04-28T05:32:18.183Z,22.16
2023-04-28T05:33:18.132Z,22.12
2023-04-28T05:34:18.354Z,22.13
2023-04-28T05:35:18.169Z,22.13
2023-04-28T05:36:18.226Z,22.11
2023-04-28T05:37:18.153Z,22.11
2023-04-28T05:38:18.202Z,22.11
2023-04-28T05:39:18.180Z,22.11
2023-04-28T05:40:18.141Z,22.13
2023-04-28T05:41:18.356Z,22.12
2023-04-28T05:42:18.173Z,22.15
2023-04-28T05:43:18.199Z,22.15
2023-04-28T05:44:18.504Z,22.15
2023-04-28T05:45:18.203Z,22.13
2023-04-28T05:46:30.061Z,22.12
2023-04-28T05:47:19.172Z,22.15
2023-04-28T05:48:18.158Z,22.16
2023-04-28T05:49:18.165Z,22.17
2023-04-28T05:50:18.170Z,22.17
2023-04-28T05:51:18.339Z,22.19
2023-04-28T05:52:18.160Z,22.12
2023-04-28T05:53:18.143Z,22.06
2023-04-28T05:54:18.321Z,22.06
2023-04-28T05:55:18.154Z,22.06
2023-04-28T05:56:18.138Z,22.05
2023-04-28T05:57:18.108Z,22.08
2023-04-28T05:58:18.120Z,22.02
2023-04-28T05:59:18.183Z,22.06
2023-04-28T06:00:18.080Z,22.02
2023-04-28T06:01:18.109Z,22.05
2023-04-28T06:02:19.831Z,22.05
2023-04-28T06:03:18.163Z,22.03
2023-04-28T06:04:18.501Z,22.06
2023-04-28T06:05:18.310Z,22.08
2023-04-28T06:06:18.131Z,22.03
2023-04-28T06:07:18.066Z,22.02
2023-04-28T06:08:18.032Z,21.94
2023-04-28T06:09:18.297Z,21.89
2023-04-28T06:10:18.058Z,21.89
2023-04-28T06:11:18.061Z,21.85
2023-04-28T06:12:18.004Z,21.84
2023-04-28T06:13:17.981Z,21.81
2023-04-28T06:14:18.187Z,21.80
2023-04-28T06:15:17.979Z,21.75
2023-04-28T06:16:18.022Z,21.73
2023-04-28T06:17:17.982Z,21.70
2023-04-28T06:18:18.003Z,21.65
2023-04-28T06:19:17.956Z,21.61
2023-04-28T06:20:17.970Z,21.58
2023-04-28T06:21:17.948Z,21.57
2023-04-28T06:22:18.383Z,21.54
2023-04-28T06:23:17.938Z,21.51
2023-04-28T06:24:18.196Z,21.50
2023-04-28T06:25:17.904Z,21.46
2023-04-28T06:26:18.529Z,21.47
2023-04-28T06:27:18.394Z,21.46
2023-04-28T06:28:17.889Z,21.43
2023-04-28T06:29:17.914Z,21.40
2023-04-28T06:30:17.887Z,21.42
2023-04-28T06:31:17.908Z,21.39
2023-04-28T06:32:17.896Z,21.36
2023-04-28T06:33:17.876Z,21.33
2023-04-28T06:34:18.044Z,21.30
2023-04-28T06:35:17.852Z,21.32
2023-04-28T06:36:18.101Z,21.29
2023-04-28T06:37:17.830Z,21.25
2023-04-28T06:38:17.828Z,21.25
2023-04-28T06:39:17.809Z,21.25
2023-04-28T06:40:17.820Z,21.19
2023-04-28T06:41:17.814Z,21.19
2023-04-28T06:42:17.781Z,21.15
2023-04-28T06:43:17.809Z,21.18
2023-04-28T06:44:18.192Z,21.12
2023-04-28T06:45:17.808Z,21.15
2023-04-28T06:46:17.792Z,21.15
2023-04-28T06:47:17.752Z,21.12
2023-04-28T06:48:17.756Z,21.15
2023-04-28T06:49:17.730Z,21.10
2023-04-28T06:50:17.740Z,21.10
2023-04-28T06:51:17.731Z,21.09
2023-04-28T06:52:17.718Z,21.06
2023-04-28T06:53:17.697Z,21.08
2023-04-28T06:54:18.276Z,21.10
2023-04-28T06:55:17.739Z,21.02
2023-04-28T06:56:17.677Z,21.02
2023-04-28T06:57:17.671Z,20.99
2023-04-28T06:58:17.679Z,20.97
2023-04-28T06:59:17.693Z,20.99
2023-04-28T07:00:17.676Z,20.97
2023-04-28T07:01:17.703Z,20.95
2023-04-28T07:02:17.968Z,20.92
2023-04-28T07:03:17.694Z,20.92
2023-04-28T07:04:18.061Z,20.92
2023-04-28T07:05:17.600Z,20.90
2023-04-28T07:06:17.689Z,20.87
2023-04-28T07:07:17.627Z,20.85
2023-04-28T07:08:17.606Z,20.87
2023-04-28T07:09:17.650Z,20.85
2023-04-28T07:10:17.612Z,20.83
2023-04-28T07:11:17.604Z,20.81
2023-04-28T07:12:17.623Z,20.78
2023-04-28T07:13:17.614Z,20.81
2023-04-28T07:14:17.855Z,20.75
2023-04-28T07:15:17.710Z,20.75
2023-04-28T07:16:17.763Z,20.74
2023-04-28T07:17:17.683Z,20.77
2023-04-28T07:18:17.694Z,20.74
2023-04-28T07:19:17.733Z,20.71
2023-04-28T07:20:17.739Z,20.73
2023-04-28T07:21:17.751Z,20.70
2023-04-28T07:22:17.796Z,20.70
2023-04-28T07:23:17.805Z,20.67
2023-04-28T07:24:18.089Z,20.68
2023-04-28T07:25:17.876Z,20.67
2023-04-28T07:26:17.904Z,20.68
2023-04-28T07:27:18.401Z,20.64
2023-04-28T07:28:17.925Z,20.63
2023-04-28T07:29:17.980Z,20.58
2023-04-28T07:30:27.224Z,20.62
2023-04-28T07:31:18.984Z,20.58
2023-04-28T07:32:18.435Z,20.56
2023-04-28T07:33:17.972Z,20.58
2023-04-28T07:34:18.351Z,20.62
2023-04-28T07:35:17.937Z,20.56
2023-04-28T07:36:17.951Z,20.56
2023-04-28T07:37:18.418Z,20.56
2023-04-28T07:38:17.938Z,20.54
2023-04-28T07:39:17.943Z,20.51
2023-04-28T07:40:17.956Z,20.56
2023-04-28T07:41:17.939Z,20.53
2023-04-28T07:42:17.932Z,20.51
2023-04-28T07:43:17.919Z,20.49
2023-04-28T07:44:18.320Z,20.51
2023-04-28T07:45:17.895Z,20.51
2023-04-28T07:46:18.002Z,20.51
2023-04-28T07:47:18.010Z,20.49
2023-04-28T07:48:18.051Z,20.50
2023-04-28T07:49:18.019Z,20.58
2023-04-28T07:50:18.042Z,20.64
2023-04-28T07:51:18.124Z,20.74
2023-04-28T07:52:18.140Z,20.71
2023-04-28T07:53:18.203Z,20.74
2023-04-28T07:54:18.465Z,20.87
2023-04-28T07:55:18.193Z,20.91
2023-04-28T07:56:18.199Z,21.01
2023-04-28T07:57:18.440Z,21.10
2023-04-28T07:58:18.176Z,21.16
2023-04-28T07:59:18.200Z,21.22
2023-04-28T08:00:18.245Z,21.32
2023-04-28T08:01:18.244Z,21.36
2023-04-28T08:02:18.543Z,21.44
2023-04-28T08:03:18.514Z,21.49
2023-04-28T08:04:18.985Z,21.53
2023-04-28T08:05:18.729Z,21.61
2023-04-28T08:06:18.526Z,21.67
2023-04-28T08:07:18.925Z,21.71
2023-04-28T08:08:18.595Z,21.77
2023-04-28T08:09:18.633Z,21.82
2023-04-28T08:10:18.670Z,21.88
2023-04-28T08:11:18.705Z,21.94
2023-04-28T08:12:18.719Z,21.96
2023-04-28T08:13:18.747Z,21.99
2023-04-28T08:14:18.803Z,22.05
2023-04-28T08:15:18.818Z,22.09
2023-04-28T08:16:18.834Z,22.11
2023-04-28T08:17:18.932Z,22.15
2023-04-28T08:18:18.765Z,22.15
2023-04-28T08:19:18.775Z,22.17
2023-04-28T08:20:18.733Z,22.23
2023-04-28T08:21:18.752Z,22.23
2023-04-28T08:22:18.938Z,22.27
2023-04-28T08:23:18.726Z,22.27
2023-04-28T08:24:18.833Z,22.32
2023-04-28T08:25:18.777Z,22.35
2023-04-28T08:26:18.832Z,22.37
2023-04-28T08:27:18.881Z,22.40
2023-04-28T08:28:18.943Z,22.42
2023-04-28T08:29:19.000Z,22.44
2023-04-28T08:30:19.128Z,22.46
2023-04-28T08:31:19.152Z,22.48
2023-04-28T08:32:19.192Z,22.48
2023-04-28T08:33:19.249Z,22.51
2023-04-28T08:34:19.526Z,22.50
2023-04-28T08:35:19.424Z,22.48
2023-04-28T08:36:19.417Z,22.53
2023-04-28T08:37:19.481Z,22.54
2023-04-28T08:38:19.842Z,22.55
2023-04-28T08:39:19.593Z,22.51
2023-04-28T08:40:19.667Z,22.51
2023-04-28T08:41:19.708Z,22.44
2023-04-28T08:42:19.757Z,22.46
2023-04-28T08:43:19.820Z,22.46
2023-04-28T08:44:19.859Z,22.43
2023-04-28T08:45:19.896Z,22.42
2023-04-28T08:46:19.913Z,22.47
2023-04-28T08:47:19.957Z,22.46
2023-04-28T08:48:19.964Z,22.43
2023-04-28T08:49:20.014Z,22.43
2023-04-28T08:50:20.060Z,22.48
2023-04-28T08:51:20.149Z,22.48
2023-04-28T08:52:20.447Z,22.51
2023-04-28T08:53:20.237Z,22.55
2023-04-28T08:54:26.092Z,22.48
2023-04-28T08:55:21.285Z,22.53
2023-04-28T08:56:20.348Z,22.54
2023-04-28T08:57:20.930Z,22.50
2023-04-28T08:58:20.275Z,22.54
2023-04-28T08:59:20.294Z,22.50
2023-04-28T09:00:21.294Z,22.42
2023-04-28T09:01:20.266Z,22.39
2023-04-28T09:02:20.565Z,22.40
2023-04-28T09:03:20.423Z,22.47
2023-04-28T09:04:21.067Z,22.51
2023-04-28T09:05:20.460Z,22.53
2023-04-28T09:06:20.223Z,22.58
2023-04-28T09:07:20.237Z,22.64
2023-04-28T09:08:20.190Z,22.65
2023-04-28T09:09:20.188Z,22.68
2023-04-28T09:10:20.211Z,22.72
2023-04-28T09:11:20.217Z,22.76
2023-04-28T09:12:20.267Z,22.78
2023-04-28T09:13:20.310Z,22.82
2023-04-28T09:14:20.323Z,22.85
2023-04-28T09:15:20.358Z,22.88
2023-04-28T09:16:20.423Z,22.88
2023-04-28T09:17:20.395Z,22.95
2023-04-28T09:18:20.405Z,22.95
2023-04-28T09:19:20.447Z,23.01
2023-04-28T09:20:20.427Z,23.03
2023-04-28T09:21:20.452Z,23.05
2023-04-28T09:22:26.760Z,23.09
2023-04-28T09:23:21.449Z,23.07
2023-04-28T09:24:20.416Z,23.12
2023-04-28T09:25:20.407Z,23.17
2023-04-28T09:26:20.422Z,23.17
2023-04-28T09:27:20.433Z,23.20
2023-04-28T09:28:20.416Z,23.23
2023-04-28T09:29:20.392Z,23.27
2023-04-28T09:30:20.380Z,23.27
2023-04-28T09:31:20.413Z,23.31
2023-04-28T09:32:20.530Z,23.33
2023-04-28T09:33:20.434Z,23.34
2023-04-28T09:34:20.379Z,23.37
2023-04-28T09:35:20.328Z,23.37
2023-04-28T09:36:20.319Z,23.40
2023-04-28T09:37:20.326Z,23.43
2023-04-28T09:38:20.453Z,23.44
2023-04-28T09:39:20.380Z,23.46
2023-04-28T09:40:20.414Z,23.46
2023-04-28T09:41:20.478Z,23.48
2023-04-28T09:42:20.541Z,23.51
2023-04-28T09:43:21.879Z,23.51
2023-04-28T09:44:20.609Z,23.54
2023-04-28T09:45:20.701Z,23.57
2023-04-28T09:46:20.846Z,23.57
2023-04-28T09:47:20.821Z,23.48
2023-04-28T09:48:20.863Z,23.55
2023-04-28T09:49:20.931Z,23.58
2023-04-28T09:50:21.009Z,23.60
2023-04-28T09:51:21.093Z,23.58
2023-04-28T09:52:21.095Z,23.55
2023-04-28T09:53:21.158Z,23.54
2023-04-28T09:54:21.194Z,23.55
2023-04-28T09:55:21.261Z,23.53
2023-04-28T09:56:21.273Z,23.48
2023-04-28T09:57:21.387Z,23.50
2023-04-28T09:58:21.498Z,23.48
2023-04-28T09:59:21.462Z,23.44
2023-04-28T10:00:21.495Z,23.43
2023-04-28T10:01:21.520Z,23.40
2023-04-28T10:02:41.965Z,23.39
2023-04-28T10:03:23.380Z,23.36
2023-04-28T10:04:21.769Z,23.34
2023-04-28T10:05:22.010Z,23.31
2023-04-28T10:06:21.735Z,23.30
2023-04-28T10:07:21.693Z,23.27
2023-04-28T10:08:21.991Z,23.29
2023-04-28T10:09:22.437Z,23.23
2023-04-28T10:10:21.691Z,23.24
2023-04-28T10:11:21.704Z,23.23
2023-04-28T10:12:21.725Z,23.22
2023-04-28T10:13:21.695Z,23.19
2023-04-28T10:14:21.736Z,23.19
2023-04-28T10:15:21.763Z,23.16
2023-04-28T10:16:21.825Z,23.14
2023-04-28T10:17:21.779Z,23.14
2023-04-28T10:18:21.804Z,23.13
2023-04-28T10:19:21.799Z,23.13
2023-04-28T10:20:21.802Z,23.07
2023-04-28T10:21:21.808Z,23.10
2023-04-28T10:22:22.519Z,23.06
2023-04-28T10:23:21.870Z,23.07
2023-04-28T10:24:21.861Z,23.06
2023-04-28T10:25:21.915Z,23.02
2023-04-28T10:26:22.104Z,23.02
2023-04-28T10:27:21.948Z,23.02
2023-04-28T10:28:21.978Z,23.01
2023-04-28T10:29:21.994Z,23.02
2023-04-28T10:30:27.367Z,22.99
2023-04-28T10:31:23.133Z,22.99
2023-04-28T10:32:22.092Z,22.99
2023-04-28T10:33:22.018Z,22.98
2023-04-28T10:34:21.993Z,22.95
2023-04-28T10:35:22.007Z,22.94
2023-04-28T10:36:33.508Z,22.96
2023-04-28T10:37:23.001Z,22.94
2023-04-28T10:38:22.018Z,22.94
2023-04-28T10:39:21.977Z,22.95
2023-04-28T10:40:21.937Z,22.94
2023-04-28T10:41:21.942Z,22.91
2023-04-28T10:42:21.945Z,22.88
2023-04-28T10:43:21.951Z,22.89
2023-04-28T10:44:21.956Z,22.87
2023-04-28T10:45:21.924Z,22.88
2023-04-28T10:46:21.990Z,22.88
2023-04-28T10:47:21.889Z,22.87
2023-04-28T10:48:22.025Z,22.85
2023-04-28T10:49:21.871Z,22.85
2023-04-28T10:50:26.460Z,22.84
2023-04-28T10:51:22.909Z,22.81
2023-04-28T10:52:21.879Z,22.82
2023-04-28T10:53:22.021Z,22.81
2023-04-28T10:54:21.863Z,22.79
2023-04-28T10:55:22.575Z,22.81
2023-04-28T10:56:21.884Z,22.81
2023-04-28T10:57:21.878Z,22.79
2023-04-28T10:58:21.844Z,22.79
2023-04-28T10:59:21.848Z,22.76
2023-04-28T11:00:21.845Z,22.76
2023-04-28T11:01:22.053Z,22.78
2023-04-28T11:02:22.013Z,22.76
2023-04-28T11:03:21.981Z,22.74
2023-04-28T11:04:22.145Z,22.75
2023-04-28T11:05:22.229Z,22.75
2023-04-28T11:06:22.115Z,22.75
2023-04-28T11:07:22.261Z,22.74
2023-04-28T11:08:22.739Z,22.71
2023-04-28T11:09:22.228Z,22.72
2023-04-28T11:10:22.299Z,22.71
2023-04-28T11:11:22.376Z,22.72
2023-04-28T11:12:22.394Z,22.71
2023-04-28T11:13:22.467Z,22.72
2023-04-28T11:14:22.508Z,22.71
2023-04-28T11:15:22.541Z,22.71
2023-04-28T11:16:22.807Z,22.70
2023-04-28T11:17:22.661Z,22.70
2023-04-28T11:18:22.704Z,22.68
2023-04-28T11:19:22.789Z,22.70
2023-04-28T11:20:22.783Z,22.68
2023-04-28T11:21:22.863Z,22.70
2023-04-28T11:22:22.916Z,22.67
2023-04-28T11:23:22.978Z,22.67
2023-04-28T11:24:23.031Z,22.62
2023-04-28T11:25:23.100Z,22.65
2023-04-28T11:26:23.124Z,22.65
2023-04-28T11:27:23.176Z,22.65
2023-04-28T11:28:23.230Z,22.67
2023-04-28T11:29:23.300Z,22.64
2023-04-28T11:30:23.346Z,22.64
2023-04-28T11:31:23.435Z,22.62
2023-04-28T11:32:23.466Z,22.64
2023-04-28T11:33:23.516Z,22.64
2023-04-28T11:34:23.557Z,22.62
2023-04-28T11:35:23.614Z,22.61
2023-04-28T11:36:23.684Z,22.67
2023-04-28T11:37:23.752Z,22.62
2023-04-28T11:38:24.057Z,22.58
2023-04-28T11:39:23.860Z,22.60
2023-04-28T11:40:23.932Z,22.61
2023-04-28T11:41:23.994Z,22.60
2023-04-28T11:42:24.069Z,22.58
2023-04-28T11:43:25.870Z,22.58
2023-04-28T11:44:24.142Z,22.60
2023-04-28T11:45:24.076Z,22.60
2023-04-28T11:46:24.182Z,22.58
2023-04-28T11:47:24.113Z,22.60
2023-04-28T11:48:24.086Z,22.58
2023-04-28T11:49:24.050Z,22.60
2023-04-28T11:50:24.077Z,22.58
2023-04-28T11:51:24.059Z,22.58
2023-04-28T11:52:24.042Z,22.58
2023-04-28T11:53:24.032Z,22.57
2023-04-28T11:54:24.056Z,22.58
2023-04-28T11:55:24.130Z,22.55
2023-04-28T11:56:24.172Z,22.58
2023-04-28T11:57:24.254Z,22.57
2023-04-28T11:58:24.310Z,22.55
2023-04-28T12:00:24.395Z,22.58
2023-04-28T12:01:24.731Z,22.60
2023-04-28T12:02:24.729Z,22.55
2023-04-28T12:03:24.761Z,22.58
2023-04-28T12:04:24.696Z,22.60
2023-04-28T12:05:24.799Z,22.58
2023-04-28T12:06:24.773Z,22.58
2023-04-28T12:07:24.830Z,22.61
2023-04-28T12:08:24.914Z,22.60
2023-04-28T12:09:24.963Z,22.61
2023-04-28T12:10:25.020Z,22.64
2023-04-28T12:12:34.969Z,22.64
2023-04-28T12:13:26.556Z,22.62
2023-04-28T12:14:25.109Z,22.65
2023-04-28T12:15:25.098Z,22.61
2023-04-28T12:16:25.140Z,22.60
2023-04-28T12:17:25.110Z,22.64
2023-04-28T12:18:25.088Z,22.64
2023-04-28T12:19:25.057Z,22.67
2023-04-28T12:20:25.082Z,22.67
2023-04-28T12:21:25.050Z,22.67
2023-04-28T12:22:25.099Z,22.64
2023-04-28T12:23:25.553Z,22.65
2023-04-28T12:24:25.196Z,22.67
2023-04-28T12:25:25.269Z,22.67
2023-04-28T12:26:25.343Z,22.70
2023-04-28T12:27:25.374Z,22.65
2023-04-28T12:28:25.464Z,22.68
2023-04-28T12:29:25.494Z,22.58
2023-04-28T12:30:25.557Z,22.67
2023-04-28T12:31:25.665Z,22.68
2023-04-28T12:32:25.676Z,22.65
2023-04-28T12:33:25.718Z,22.68
2023-04-28T12:34:25.766Z,22.70
2023-04-28T12:35:25.838Z,22.70
2023-04-28T12:36:25.892Z,22.70
2023-04-28T12:37:25.931Z,22.71
2023-04-28T12:38:25.986Z,22.68
2023-04-28T12:39:26.056Z,22.72
2023-04-28T12:40:26.160Z,22.72
2023-04-28T12:41:26.132Z,22.71
2023-04-28T12:42:26.161Z,22.75
2023-04-28T12:43:26.203Z,22.72
2023-04-28T12:44:26.267Z,22.74
2023-04-28T12:45:26.292Z,22.75
2023-04-28T12:46:26.384Z,22.76
2023-04-28T12:47:26.421Z,22.75
2023-04-28T12:48:26.439Z,22.78
2023-04-28T12:49:26.553Z,22.75
2023-04-28T12:50:26.514Z,22.75
2023-04-28T12:51:26.617Z,22.76
2023-04-28T12:52:26.617Z,22.75
2023-04-28T12:53:26.689Z,22.76
2023-04-28T12:54:26.708Z,22.78
2023-04-28T12:55:26.756Z,22.79